Flight Track Log - Related Links

Times and Time Zones

All times are in EST time to prevent confusion due to time zone crossing. See the CES2227 flight status page for this flight to view local times or setup timezone preferences in your user account.

Time Position Orientation Groundspeed Altitude Reporting Facility
EST Latitude Longitude Course Direction KTS MPH feet Rate Location/Type
Sat 03:39:00 AM 31.4216 120.0650 281° West  Level Estimated
Sat 03:40:00 AM 31.4364 119.9687 280° West  Level Estimated
Sat 03:41:00 AM 31.4512 119.8724 280° West  Level Estimated
Sat 03:42:00 AM 31.4659 119.7761 280° West  Level Estimated
Sat 03:43:00 AM 31.4804 119.6798 280° West  Level Estimated
Sat 03:44:00 AM 31.4950 119.5834 280° West  Level Estimated
Sat 03:45:00 AM 31.5094 119.4870 280° West  Level Estimated
Sat 03:46:00 AM 31.5238 119.3905 280° West  Level Estimated
Sat 03:47:00 AM 31.5381 119.2941 280° West  Level Estimated
Sat 03:48:00 AM 31.5523 119.1976 280° West  Level Estimated
Sat 03:49:00 AM 31.5665 119.1010 280° West  Level Estimated
Sat 03:50:00 AM 31.5806 119.0045 280° West  Level Estimated
Sat 03:51:00 AM 31.5946 118.9079 280° West  Level Estimated
Sat 03:52:00 AM 31.6085 118.8113 280° West  Level Estimated
Sat 03:53:00 AM 31.6224 118.7146 280° West  Level Estimated
Sat 03:54:00 AM 31.6362 118.6179 280° West  Level Estimated
Sat 03:55:00 AM 31.6499 118.5212 279° West  Level Estimated
Sat 03:56:00 AM 31.6636 118.4245 279° West  Level Estimated
Sat 03:57:00 AM 31.6772 118.3277 279° West  Level Estimated
Sat 03:58:00 AM 31.6907 118.2309 279° West  Level Estimated
Sat 03:59:00 AM 31.7041 118.1341 279° West  Level Estimated
Sat 04:00:00 AM 31.7175 118.0373 279° West  Level Estimated
Sat 04:01:00 AM 31.7307 117.9404 279° West  Level Estimated
Sat 04:02:00 AM 31.7440 117.8435 279° West  Level Estimated
Sat 04:03:00 AM 31.7571 117.7466 279° West  Level Estimated
Sat 04:04:00 AM 31.7702 117.6496 279° West  Level Estimated
Sat 04:05:00 AM 31.7832 117.5526 279° West  Level Estimated
Sat 04:06:00 AM 31.7961 117.4556 279° West  Level Estimated
Sat 04:07:00 AM 31.8089 117.3586 279° West  Level Estimated
Sat 04:08:00 AM 31.8217 117.2615 279° West  Level Estimated
Sat 04:09:00 AM 31.8344 117.1644 279° West  Level Estimated
Sat 04:10:00 AM 31.8470 117.0673 279° West  Level Estimated
Sat 04:11:00 AM 31.8596 116.9702 279° West  Level Estimated
Sat 04:12:00 AM 31.8720 116.8730 279° West  Level Estimated
Sat 04:13:00 AM 31.8845 116.7758 279° West  Level Estimated
Sat 04:14:00 AM 31.8968 116.6786 279° West  Level Estimated
Sat 04:15:00 AM 31.9090 116.5813 278° West  Level Estimated
Sat 04:16:00 AM 31.9212 116.4841 278° West  Level Estimated
Sat 04:17:00 AM 31.9333 116.3868 278° West  Level Estimated
Sat 04:18:00 AM 31.9454 116.2894 278° West  Level Estimated
Sat 04:19:00 AM 31.9573 116.1921 278° West  Level Estimated
Sat 04:20:00 AM 31.9692 116.0947 278° West  Level Estimated
Sat 04:21:00 AM 31.9810 115.9973 278° West  Level Estimated
Sat 04:22:00 AM 31.9927 115.8999 278° West  Level Estimated
Sat 04:23:00 AM 32.0044 115.8024 278° West  Level Estimated
Sat 04:24:00 AM 32.0160 115.7049 278° West  Level Estimated
Sat 04:25:00 AM 32.0275 115.6074 278° West  Level Estimated
Sat 04:26:00 AM 32.0389 115.5099 278° West  Level Estimated
Sat 04:27:00 AM 32.0503 115.4124 278° West  Level Estimated
Sat 04:28:00 AM 32.0616 115.3148 278° West  Level Estimated
Sat 04:29:00 AM 32.0728 115.2172 278° West  Level Estimated
Sat 04:30:00 AM 32.0839 115.1196 278° West  Level Estimated
Sat 04:31:00 AM 32.0950 115.0219 278° West  Level Estimated
Sat 04:32:00 AM 32.1060 114.9242 278° West  Level Estimated
Sat 04:33:00 AM 32.1169 114.8266 278° West  Level Estimated
Sat 04:34:00 AM 32.1277 114.7288 277° West  Level Estimated
Sat 04:35:00 AM 32.1385 114.6311 277° West  Level Estimated
Sat 04:36:00 AM 32.1492 114.5333 277° West  Level Estimated
Sat 04:37:00 AM 32.1598 114.4356 277° West  Level Estimated
Sat 04:38:00 AM 32.1703 114.3378 277° West  Level Estimated
Sat 04:39:00 AM 32.1808 114.2399 277° West  Level Estimated
Sat 04:40:00 AM 32.1912 114.1421 277° West  Level Estimated
Sat 04:41:00 AM 32.2015 114.0442 277° West  Level Estimated
Sat 04:42:00 AM 32.2117 113.9463 277° West  Level Estimated
Sat 04:43:00 AM 32.2219 113.8484 277° West  Level Estimated
Sat 04:44:00 AM 32.2320 113.7504 277° West  Level Estimated
Sat 04:45:00 AM 32.2420 113.6525 277° West  Level Estimated
Sat 04:46:00 AM 32.2519 113.5545 277° West  Level Estimated
Sat 04:47:00 AM 32.2618 113.4565 277° West  Level Estimated
Sat 04:48:00 AM 32.2716 113.3585 277° West  Level Estimated
Sat 04:49:00 AM 32.2813 113.2604 277° West  Level Estimated
Sat 04:50:00 AM 32.2909 113.1623 277° West  Level Estimated
Sat 04:51:00 AM 32.3005 113.0642 277° West  Level Estimated
Sat 04:52:00 AM 32.3100 112.9661 277° West  Level Estimated
Sat 04:53:00 AM 32.3194 112.8680 276° West  Level Estimated
Sat 04:54:00 AM 32.3287 112.7699 276° West  Level Estimated
Sat 04:55:00 AM 32.3379 112.6717 276° West  Level Estimated
Sat 04:56:00 AM 32.3471 112.5735 276° West  Level Estimated
Sat 04:57:00 AM 32.3562 112.4753 276° West  Level Estimated
Sat 04:58:00 AM 32.3652 112.3771 276° West  Level Estimated
Sat 04:59:00 AM 32.3742 112.2788 276° West  Level Estimated
Sat 05:00:00 AM 32.3830 112.1805 276° West  Level Estimated
Sat 05:01:00 AM 32.3918 112.0823 276° West  Level Estimated
Sat 05:02:00 AM 32.4006 111.9839 276° West  Level Estimated
Sat 05:03:00 AM 32.4092 111.8856 276° West  Level Estimated
Sat 05:04:00 AM 32.4178 111.7873 276° West  Level Estimated
Sat 05:05:00 AM 32.4263 111.6889 276° West  Level Estimated
Sat 05:06:00 AM 32.4347 111.5905 276° West  Level Estimated
Sat 05:07:00 AM 32.4430 111.4921 276° West  Level Estimated
Sat 05:08:00 AM 32.4513 111.3937 276° West  Level Estimated
Sat 05:09:00 AM 32.4594 111.2953 276° West  Level Estimated
Sat 05:10:00 AM 32.4676 111.1968 276° West  Level Estimated
Sat 05:11:00 AM 32.4756 111.0983 276° West  Level Estimated
Sat 05:12:00 AM 32.4835 110.9998 275° West  Level Estimated
Sat 05:13:00 AM 32.4914 110.9013 275° West  Level Estimated
Sat 05:14:00 AM 32.4992 110.8028 275° West  Level Estimated
Sat 05:15:00 AM 32.5069 110.7043 275° West  Level Estimated
Sat 05:16:00 AM 32.5146 110.6057 275° West  Level Estimated
Sat 05:17:00 AM 32.5222 110.5071 275° West  Level Estimated
Sat 05:18:00 AM 32.5297 110.4086 275° West  Level Estimated
Sat 05:19:00 AM 32.5371 110.3100 275° West  Level Estimated
Sat 05:20:00 AM 32.5444 110.2113 275° West  Level Estimated
Sat 05:21:00 AM 32.5517 110.1127 275° West  Level Estimated
Sat 05:22:00 AM 32.5588 110.0140 275° West  Level Estimated
Sat 05:23:00 AM 32.5660 109.9154 275° West  Level Estimated
Sat 05:24:00 AM 32.5730 109.8167 275° West  Level Estimated
Sat 05:25:00 AM 32.5799 109.7180 275° West  Level Estimated
Sat 05:26:00 AM 32.5868 109.6192 275° West  Level Estimated
Sat 05:27:00 AM 32.5936 109.5205 275° West  Level Estimated
Sat 05:28:00 AM 32.6003 109.4218 275° West  Level Estimated
Sat 05:29:00 AM 32.6070 109.3230 275° West  Level Estimated
Sat 05:30:00 AM 32.6135 109.2242 275° West  Level Estimated
Sat 05:31:00 AM 32.6200 109.1254 274° West  Level Estimated
Sat 05:32:00 AM 32.6264 109.0266 274° West  Level Estimated
Sat 05:33:00 AM 32.6328 108.9278 274° West  Level Estimated
Sat 05:34:00 AM 32.6390 108.8290 274° West  Level Estimated
Sat 05:35:00 AM 32.6452 108.7301 274° West  Level Estimated
Sat 05:36:00 AM 32.6513 108.6313 274° West  Level Estimated
Sat 05:37:00 AM 32.6574 108.5324 274° West  Level Estimated
Sat 05:38:00 AM 32.6633 108.4335 274° West  Level Estimated
Sat 05:39:00 AM 32.6692 108.3346 274° West  Level Estimated
Sat 05:40:00 AM 32.6750 108.2357 274° West  Level Estimated
Sat 05:41:00 AM 32.6807 108.1368 274° West  Level Estimated
Sat 05:42:00 AM 32.6863 108.0378 274° West  Level Estimated
Sat 05:43:00 AM 32.6919 107.9389 274° West  Level Estimated
Sat 05:44:00 AM 32.6974 107.8399 274° West  Level Estimated
Sat 05:45:00 AM 32.7028 107.7409 274° West  Level Estimated
Sat 05:46:00 AM 32.7081 107.6420 274° West  Level Estimated
Sat 05:47:00 AM 32.7133 107.5430 274° West  Level Estimated
Sat 05:48:00 AM 32.7185 107.4439 274° West  Level Estimated
Sat 05:49:00 AM 32.7236 107.3449 274° West  Level Estimated
Sat 05:50:00 AM 32.7286 107.2459 273° West  Level Estimated
Sat 05:51:00 AM 32.7336 107.1469 273° West  Level Estimated
Sat 05:52:00 AM 32.7384 107.0478 273° West  Level Estimated
Sat 05:53:00 AM 32.7432 106.9487 273° West  Level Estimated
Sat 05:54:00 AM 32.7479 106.8496 273° West  Level Estimated
Sat 05:55:00 AM 32.7525 106.7506 273° West  Level Estimated
Sat 05:56:00 AM 32.7571 106.6515 273° West  Level Estimated
Sat 05:57:00 AM 32.7616 106.5524 273° West  Level Estimated
Sat 05:58:00 AM 32.7659 106.4532 273° West  Level Estimated
Sat 05:59:00 AM 32.7703 106.3541 273° West  Level Estimated
Sat 06:00:00 AM 32.7745 106.2550 273° West  Level Estimated
Sat 06:01:00 AM 32.7787 106.1558 273° West  Level Estimated
Sat 06:02:00 AM 32.7827 106.0567 273° West  Level Estimated
Sat 06:03:00 AM 32.7867 105.9575 273° West  Level Estimated
Sat 06:04:00 AM 32.7907 105.8583 273° West  Level Estimated
Sat 06:05:00 AM 32.7945 105.7591 273° West  Level Estimated
Sat 06:06:00 AM 32.7983 105.6600 273° West  Level Estimated
Sat 06:07:00 AM 32.8020 105.5608 273° West  Level Estimated
Sat 06:08:00 AM 32.8056 105.4615 273° West  Level Estimated
Sat 06:09:00 AM 32.8091 105.3623 272° West  Level Estimated
Sat 06:10:00 AM 32.8126 105.2631 272° West  Level Estimated
Sat 06:11:00 AM 32.8159 105.1639 272° West  Level Estimated
Sat 06:12:00 AM 32.8192 105.0647 272° West  Level Estimated
Sat 06:13:00 AM 32.8225 104.9654 272° West  Level Estimated
Sat 06:14:00 AM 32.8256 104.8662 272° West  Level Estimated
Sat 06:15:00 AM 32.8288 104.7612 272° West  Level Estimated
Sat 06:16:00 AM 32.8320 104.6563 272° West  Level Estimated
Sat 06:17:00 AM 32.8350 104.5513 272° West  Level Estimated
Sat 06:18:00 AM 32.8380 104.4464 272° West  Level Estimated
Sat 06:19:00 AM 32.8409 104.3414 272° West  Level Estimated
Sat 06:20:00 AM 32.8437 104.2365 272° West  Level Estimated
Sat 06:21:00 AM 32.8464 104.1315 272° West  Level Estimated
Sat 06:22:00 AM 32.8490 104.0265 272° West  Level Estimated
Sat 06:23:00 AM 32.8516 103.9215 272° West  Level Estimated
Sat 06:24:00 AM 32.8540 103.8165 272° West  Level Estimated
Sat 06:25:00 AM 32.8564 103.7115 272° West  Level Estimated
Sat 06:26:00 AM 32.8570 103.6830 272° West  Level Estimated
Sat 06:27:00 AM 32.8570 103.6830 North  Level Estimated
Sat 06:28:00 AM 32.8570 103.6830 North  Level Estimated
Sat 06:29:00 AM 32.8570 103.6830 North  Level Estimated
Sat 06:30:00 AM 32.8570 103.6830 North  Level Estimated
Sat 06:31:00 AM 32.8570 103.6830 North  Level Estimated
Sat 06:32:00 AM 32.8570 103.6830 North  Level Estimated

Login

Don't have an account? Register now (free) for customized features, flight alerts, and more!